createdAt,value
2023-02-27T00:00:17.753Z,1.92
2023-02-27T00:02:25.375Z,1.91
2023-02-27T00:04:34.677Z,1.94
2023-02-27T00:06:42.262Z,1.94
2023-02-27T00:08:47.281Z,1.96
2023-02-27T00:10:53.071Z,2.04
2023-02-27T00:12:57.994Z,2.08
2023-02-27T00:15:03.136Z,2.06
2023-02-27T00:17:08.189Z,2.07
2023-02-27T00:19:18.017Z,2.06
2023-02-27T00:21:22.801Z,2.01
2023-02-27T00:23:33.092Z,2.08
2023-02-27T00:25:39.622Z,2.05
2023-02-27T00:27:44.958Z,2.16
2023-02-27T00:29:49.780Z,2.13
2023-02-27T00:31:54.641Z,2.14
2023-02-27T00:34:05.063Z,2.16
2023-02-27T00:36:10.295Z,2.15
2023-02-27T00:38:19.324Z,2.16
2023-02-27T00:40:27.534Z,2.18
2023-02-27T00:42:37.850Z,2.20
2023-02-27T00:44:43.176Z,2.15
2023-02-27T00:46:48.507Z,2.15
2023-02-27T00:48:53.424Z,2.19
2023-02-27T00:50:58.617Z,2.13
2023-02-27T00:53:03.912Z,2.14
2023-02-27T00:55:09.929Z,2.12
2023-02-27T00:57:20.343Z,2.15
2023-02-27T00:59:25.232Z,2.16
2023-02-27T01:01:30.184Z,2.09
2023-02-27T01:03:39.881Z,2.06
2023-02-27T01:05:44.781Z,2.04
2023-02-27T01:07:49.772Z,2.02
2023-02-27T01:09:54.685Z,2.02
2023-02-27T01:11:59.622Z,2.05
2023-02-27T01:14:08.947Z,2.08
2023-02-27T01:16:13.773Z,2.08
2023-02-27T01:18:21.518Z,2.03
2023-02-27T01:20:26.562Z,2.01
2023-02-27T01:22:33.099Z,2.00
2023-02-27T01:24:41.575Z,1.97
2023-02-27T01:26:47.805Z,2.00
2023-02-27T01:28:52.722Z,1.97
2023-02-27T01:31:02.453Z,1.86
2023-02-27T01:33:18.706Z,1.88
2023-02-27T01:35:23.437Z,1.92
2023-02-27T01:37:28.265Z,1.81
2023-02-27T01:39:33.252Z,1.75
2023-02-27T01:41:40.773Z,1.78
2023-02-27T01:44:00.204Z,1.74
2023-02-27T01:46:08.376Z,1.77
2023-02-27T01:48:19.503Z,1.69
2023-02-27T01:50:25.336Z,1.68
2023-02-27T01:52:31.953Z,1.60
2023-02-27T01:54:39.747Z,1.62
2023-02-27T01:56:45.562Z,1.62
2023-02-27T01:58:52.489Z,1.59
2023-02-27T02:01:00.955Z,1.60
2023-02-27T02:03:17.071Z,1.55
2023-02-27T02:05:25.104Z,1.52
2023-02-27T02:07:35.547Z,1.50
2023-02-27T02:09:44.972Z,1.47
2023-02-27T02:11:52.376Z,1.41
2023-02-27T02:14:00.269Z,1.34
2023-02-27T02:16:24.768Z,1.35
2023-02-27T02:18:41.722Z,1.25
2023-02-27T02:21:16.479Z,1.23
2023-02-27T02:23:53.641Z,1.13
2023-02-27T02:26:33.172Z,1.07
2023-02-27T02:29:25.861Z,0.95
2023-02-27T02:32:03.391Z,0.83
2023-02-27T02:34:42.758Z,0.80
2023-02-27T02:37:44.507Z,0.74
2023-02-27T02:40:19.117Z,0.67
2023-02-27T02:42:28.639Z,0.64
2023-02-27T02:44:43.317Z,0.63
2023-02-27T02:46:59.624Z,0.63
2023-02-27T02:49:17.100Z,0.62
2023-02-27T02:51:35.948Z,0.59
2023-02-27T02:53:48.458Z,0.51
2023-02-27T02:56:02.815Z,0.48
2023-02-27T02:58:15.769Z,0.39
2023-02-27T03:00:24.035Z,0.36
2023-02-27T03:02:33.587Z,0.39
2023-02-27T03:04:43.624Z,0.37
2023-02-27T03:06:54.594Z,0.33
2023-02-27T03:09:02.706Z,0.28
2023-02-27T03:11:11.356Z,0.26
2023-02-27T03:13:23.823Z,0.25
2023-02-27T03:15:38.885Z,0.25
2023-02-27T03:17:49.275Z,0.21
2023-02-27T03:19:59.727Z,0.22
2023-02-27T03:22:10.249Z,0.17
2023-02-27T03:24:21.861Z,0.04
2023-02-27T03:26:38.167Z,-0.03
2023-02-27T03:28:56.912Z,-0.10
2023-02-27T03:31:10.180Z,-0.19
2023-02-27T03:33:23.498Z,-0.26
2023-02-27T03:35:34.058Z,-0.29
2023-02-27T03:37:48.523Z,-0.31
2023-02-27T03:39:57.776Z,-0.33
2023-02-27T03:42:17.851Z,-0.32
2023-02-27T03:44:32.808Z,-0.34
2023-02-27T03:46:40.427Z,-0.35
2023-02-27T03:48:45.736Z,-0.42
2023-02-27T03:50:53.584Z,-0.43
2023-02-27T03:52:59.248Z,-0.47
2023-02-27T03:55:09.218Z,-0.44
2023-02-27T03:57:19.254Z,-0.51
2023-02-27T03:59:25.086Z,-0.58
2023-02-27T04:01:30.737Z,-0.60
2023-02-27T04:03:43.106Z,-0.65
2023-02-27T04:05:51.233Z,-0.71
2023-02-27T04:08:13.274Z,-0.79
2023-02-27T04:10:30.998Z,-0.86
2023-02-27T04:12:56.215Z,-0.93
2023-02-27T04:15:15.216Z,-1.00
2023-02-27T04:17:26.981Z,-1.05
2023-02-27T04:19:41.687Z,-1.07
2023-02-27T04:21:58.046Z,-1.08
2023-02-27T04:24:17.751Z,-1.07
2023-02-27T04:26:27.840Z,-1.12
2023-02-27T04:28:44.124Z,-1.14
2023-02-27T04:31:04.391Z,-1.14
2023-02-27T04:33:18.025Z,-1.18
2023-02-27T04:35:28.954Z,-1.15
2023-02-27T04:37:45.281Z,-1.18
2023-02-27T04:39:58.142Z,-1.20
2023-02-27T04:42:06.457Z,-1.18
2023-02-27T04:44:15.522Z,-1.15
2023-02-27T04:46:25.547Z,-1.16
2023-02-27T04:48:34.582Z,-1.15
2023-02-27T04:50:45.196Z,-1.17
2023-02-27T04:52:57.724Z,-1.14
2023-02-27T04:55:10.959Z,-1.13
2023-02-27T04:57:18.933Z,-1.14
2023-02-27T04:59:30.448Z,-1.14
2023-02-27T05:01:39.746Z,-1.18
2023-02-27T05:03:47.798Z,-1.24
2023-02-27T05:05:56.233Z,-1.25
2023-02-27T05:08:08.582Z,-1.28
2023-02-27T05:10:21.263Z,-1.30
2023-02-27T05:12:32.637Z,-1.36
2023-02-27T05:14:44.996Z,-1.43
2023-02-27T05:16:55.960Z,-1.48
2023-02-27T05:19:00.787Z,-1.46
2023-02-27T05:21:16.575Z,-1.43
2023-02-27T05:23:28.412Z,-1.46
2023-02-27T05:25:40.431Z,-1.46
2023-02-27T05:27:51.464Z,-1.50
2023-02-27T05:30:04.817Z,-1.52
2023-02-27T05:32:19.408Z,-1.52
2023-02-27T05:34:28.888Z,-1.55
2023-02-27T05:36:37.907Z,-1.57
2023-02-27T05:38:48.870Z,-1.54
2023-02-27T05:40:58.416Z,-1.52
2023-02-27T05:43:09.082Z,-1.49
2023-02-27T05:45:22.504Z,-1.40
2023-02-27T05:47:31.951Z,-1.45
2023-02-27T05:49:41.299Z,-1.42
2023-02-27T05:51:50.843Z,-1.39
2023-02-27T05:54:02.432Z,-1.37
2023-02-27T05:56:09.543Z,-1.33
2023-02-27T05:58:21.240Z,-1.34
2023-02-27T06:00:39.337Z,-1.36
2023-02-27T06:02:45.524Z,-1.35
2023-02-27T06:04:50.659Z,-1.35
2023-02-27T06:06:57.357Z,-1.31
2023-02-27T06:09:02.395Z,-1.28
2023-02-27T06:11:07.642Z,-1.26
2023-02-27T06:13:12.887Z,-1.19
2023-02-27T06:15:18.905Z,-1.21
2023-02-27T06:17:26.404Z,-1.23
2023-02-27T06:19:31.221Z,-1.21
2023-02-27T06:21:36.530Z,-1.23
2023-02-27T06:23:47.857Z,-1.21
2023-02-27T06:25:53.537Z,-1.24
2023-02-27T06:27:59.577Z,-1.26
2023-02-27T06:30:04.415Z,-1.20
2023-02-27T06:32:09.764Z,-1.20
2023-02-27T06:34:17.819Z,-1.16
2023-02-27T06:36:23.213Z,-1.16
2023-02-27T06:38:28.634Z,-1.16
2023-02-27T06:40:39.496Z,-1.19
2023-02-27T06:42:46.437Z,-1.18
2023-02-27T06:44:51.675Z,-1.13
2023-02-27T06:46:56.716Z,-1.13
2023-02-27T06:49:04.407Z,-1.11
2023-02-27T06:51:16.321Z,-1.13
2023-02-27T06:53:21.548Z,-1.13
2023-02-27T06:55:26.788Z,-1.12
2023-02-27T06:57:31.633Z,-1.14
2023-02-27T06:59:38.863Z,-1.19
2023-02-27T07:01:43.678Z,-1.22
2023-02-27T07:03:48.517Z,-1.21
2023-02-27T07:05:53.279Z,-1.18
2023-02-27T07:08:02.495Z,-1.17
2023-02-27T07:10:08.344Z,-1.11
2023-02-27T07:12:13.289Z,-1.03
2023-02-27T07:14:18.173Z,-1.00
2023-02-27T07:16:23.189Z,-0.99
2023-02-27T07:18:28.118Z,-0.98
2023-02-27T07:20:35.299Z,-0.97
2023-02-27T07:22:40.513Z,-0.91
2023-02-27T07:24:47.962Z,-0.91
2023-02-27T07:26:53.890Z,-0.85
2023-02-27T07:28:59.918Z,-0.79
2023-02-27T07:31:04.973Z,-0.73
2023-02-27T07:33:12.409Z,-0.60
2023-02-27T07:35:18.884Z,-0.51
2023-02-27T07:37:23.501Z,-0.37
2023-02-27T07:39:28.781Z,-0.33
2023-02-27T07:41:36.348Z,-0.22
2023-02-27T07:43:41.657Z,-0.13
2023-02-27T07:45:51.255Z,0.08
2023-02-27T07:47:56.004Z,0.13
2023-02-27T07:50:04.833Z,0.22
2023-02-27T07:52:11.470Z,0.29
2023-02-27T07:54:16.576Z,0.36
2023-02-27T07:56:21.285Z,0.44
2023-02-27T07:58:28.978Z,0.51
2023-02-27T08:02:48.284Z,0.60
2023-02-27T08:04:53.365Z,0.71
2023-02-27T08:06:58.393Z,0.81
2023-02-27T08:09:03.517Z,0.88
2023-02-27T08:11:08.822Z,0.98
2023-02-27T08:13:25.181Z,0.98
2023-02-27T08:15:43.257Z,1.05
2023-02-27T08:17:48.780Z,1.16
2023-02-27T08:19:56.199Z,1.26
2023-02-27T08:22:04.189Z,1.22
2023-02-27T08:24:09.326Z,1.28
2023-02-27T08:26:14.478Z,1.38
2023-02-27T08:28:20.048Z,1.50
2023-02-27T08:30:29.230Z,1.61
2023-02-27T08:32:39.603Z,1.71
2023-02-27T08:34:46.721Z,1.81
2023-02-27T08:36:54.661Z,1.91
2023-02-27T08:38:59.486Z,2.03
2023-02-27T08:41:04.547Z,2.17
2023-02-27T08:43:09.424Z,2.31
2023-02-27T08:45:17.804Z,2.46
2023-02-27T08:47:24.419Z,2.57
2023-02-27T08:49:35.699Z,2.70
2023-02-27T08:51:41.791Z,2.82
2023-02-27T08:57:19.261Z,3.09
2023-02-27T08:59:24.217Z,3.20
2023-02-27T09:01:34.497Z,3.32
2023-02-27T09:03:39.432Z,3.39
2023-02-27T09:05:46.805Z,3.50
2023-02-27T09:07:51.731Z,3.62
2023-02-27T09:09:56.393Z,3.67
2023-02-27T09:12:01.533Z,3.75
2023-02-27T09:14:07.129Z,3.95
2023-02-27T09:16:11.993Z,3.96
2023-02-27T09:18:16.725Z,4.04
2023-02-27T09:20:25.596Z,4.17
2023-02-27T09:22:33.380Z,4.21
2023-02-27T09:24:38.306Z,4.35
2023-02-27T09:26:46.221Z,4.44
2023-02-27T09:28:51.344Z,4.66
2023-02-27T09:30:57.696Z,4.61
2023-02-27T09:33:02.863Z,4.67
2023-02-27T09:35:09.621Z,4.77
2023-02-27T09:37:15.221Z,4.88
2023-02-27T09:39:30.794Z,4.97
2023-02-27T09:41:56.248Z,5.01
2023-02-27T09:44:02.750Z,5.12
2023-02-27T09:46:13.726Z,5.19
2023-02-27T09:48:30.139Z,5.17
2023-02-27T09:50:42.804Z,5.24
2023-02-27T09:52:48.037Z,5.32
2023-02-27T09:54:56.049Z,5.47
2023-02-27T09:57:16.637Z,5.56
2023-02-27T09:59:35.016Z,5.52
2023-02-27T10:01:46.680Z,5.48
2023-02-27T10:04:19.158Z,5.58
2023-02-27T10:06:29.627Z,5.76
2023-02-27T10:08:41.264Z,5.82
2023-02-27T10:11:01.195Z,5.94
2023-02-27T10:13:32.833Z,5.87
2023-02-27T10:15:42.278Z,5.80
2023-02-27T10:17:52.933Z,6.02
2023-02-27T10:20:04.747Z,6.20
2023-02-27T10:22:19.688Z,6.43
2023-02-27T10:24:31.255Z,6.43
2023-02-27T10:26:42.560Z,6.22
2023-02-27T10:28:48.240Z,6.25
2023-02-27T10:30:55.015Z,6.29
2023-02-27T10:33:07.723Z,6.23
2023-02-27T10:35:24.106Z,6.14
2023-02-27T10:37:30.873Z,6.26
2023-02-27T10:39:47.920Z,6.38
2023-02-27T10:41:55.492Z,6.41
2023-02-27T10:44:01.667Z,6.65
2023-02-27T10:46:15.382Z,6.45
2023-02-27T10:48:22.691Z,6.34
2023-02-27T10:50:32.907Z,6.23
2023-02-27T10:52:51.869Z,6.54
2023-02-27T10:54:56.796Z,6.33
2023-02-27T10:57:07.240Z,6.21
2023-02-27T10:59:21.844Z,5.72
2023-02-27T11:01:33.437Z,5.54
2023-02-27T11:03:41.899Z,5.40
2023-02-27T11:05:56.345Z,5.39
2023-02-27T11:08:17.981Z,5.78
2023-02-27T11:10:25.289Z,5.69
2023-02-27T11:12:37.830Z,5.88
2023-02-27T11:14:53.659Z,5.77
2023-02-27T11:17:00.317Z,5.82
2023-02-27T11:19:29.858Z,5.67
2023-02-27T11:21:34.703Z,5.84
2023-02-27T11:23:39.636Z,6.34
2023-02-27T11:25:44.864Z,6.19
2023-02-27T11:27:52.809Z,6.48
2023-02-27T11:30:02.649Z,6.42
2023-02-27T11:32:15.363Z,6.53
2023-02-27T11:34:25.358Z,6.28
2023-02-27T11:36:42.659Z,6.18
2023-02-27T11:38:55.782Z,6.63
2023-02-27T11:41:01.783Z,6.94
2023-02-27T11:43:19.209Z,7.29
2023-02-27T11:46:05.274Z,7.08
2023-02-27T11:48:11.646Z,6.63
2023-02-27T11:50:43.416Z,6.73
2023-02-27T11:52:53.634Z,7.07
2023-02-27T11:55:04.874Z,7.13
2023-02-27T11:57:20.366Z,7.06
2023-02-27T11:59:48.079Z,7.62
2023-02-27T12:01:58.985Z,7.58
2023-02-27T12:04:14.067Z,7.26
2023-02-27T12:06:23.841Z,7.19
2023-02-27T12:08:42.507Z,6.96
2023-02-27T12:10:55.591Z,6.97
2023-02-27T12:13:08.700Z,7.07
2023-02-27T12:15:26.149Z,7.15
2023-02-27T12:17:44.306Z,7.58
2023-02-27T12:19:59.878Z,7.71
2023-02-27T12:22:09.398Z,7.22
2023-02-27T12:24:22.329Z,7.13
2023-02-27T12:26:33.672Z,7.17
2023-02-27T12:28:46.727Z,7.30
2023-02-27T12:31:07.406Z,7.09
2023-02-27T12:33:20.956Z,6.99
2023-02-27T12:35:29.050Z,6.93
2023-02-27T12:37:35.058Z,6.92
2023-02-27T12:39:40.464Z,7.09
2023-02-27T12:42:09.268Z,7.14
2023-02-27T12:44:31.888Z,7.08
2023-02-27T12:46:51.340Z,6.72
2023-02-27T12:49:07.579Z,6.39
2023-02-27T12:51:29.806Z,6.66
2023-02-27T12:53:54.654Z,6.49
2023-02-27T12:56:06.986Z,6.25
2023-02-27T12:58:32.601Z,6.78
2023-02-27T13:00:47.313Z,7.11
2023-02-27T13:03:02.039Z,7.17
2023-02-27T13:05:20.503Z,7.25
2023-02-27T13:07:32.281Z,7.23
2023-02-27T13:09:45.828Z,6.95
2023-02-27T13:12:02.692Z,7.14
2023-02-27T13:14:19.755Z,7.15
2023-02-27T13:16:27.445Z,7.20
2023-02-27T13:18:45.729Z,7.06
2023-02-27T13:20:56.572Z,7.13
2023-02-27T13:23:13.810Z,7.42
2023-02-27T13:25:23.523Z,7.80
2023-02-27T13:27:32.496Z,8.01
2023-02-27T13:29:41.151Z,8.38
2023-02-27T13:31:55.095Z,8.40
2023-02-27T13:34:12.344Z,8.41
2023-02-27T13:36:24.358Z,8.22
2023-02-27T13:38:45.113Z,7.97
2023-02-27T13:40:49.900Z,8.17
2023-02-27T13:43:03.329Z,7.81
2023-02-27T13:45:29.034Z,7.81
2023-02-27T13:47:50.195Z,8.18
2023-02-27T13:49:57.845Z,8.08
2023-02-27T13:52:04.049Z,8.35
2023-02-27T13:54:24.317Z,8.40
2023-02-27T13:56:29.485Z,8.26
2023-02-27T13:58:34.155Z,8.51
2023-02-27T14:00:39.421Z,8.12
2023-02-27T14:02:58.829Z,7.86
2023-02-27T14:05:10.102Z,7.63
2023-02-27T14:07:18.761Z,7.43
2023-02-27T14:09:25.706Z,7.21
2023-02-27T14:11:34.546Z,6.80
2023-02-27T14:14:01.192Z,6.81
2023-02-27T14:16:08.781Z,6.84
2023-02-27T14:18:44.241Z,7.07
2023-02-27T14:20:55.103Z,7.41
2023-02-27T14:23:26.323Z,7.28
2023-02-27T14:25:37.517Z,7.08
2023-02-27T14:27:51.926Z,7.09
2023-02-27T14:30:00.521Z,6.85
2023-02-27T14:32:09.245Z,6.68
2023-02-27T14:34:18.250Z,6.65
2023-02-27T14:36:27.691Z,6.61
2023-02-27T14:38:33.321Z,6.58
2023-02-27T14:40:43.186Z,6.66
2023-02-27T14:42:59.745Z,6.63
2023-02-27T14:45:05.245Z,6.95
2023-02-27T14:47:18.453Z,7.25
2023-02-27T14:49:24.137Z,7.48
2023-02-27T14:51:37.404Z,7.25
2023-02-27T14:53:42.765Z,7.16
2023-02-27T14:55:56.640Z,7.04
2023-02-27T14:58:04.312Z,7.06
2023-02-27T15:00:10.966Z,7.05
2023-02-27T15:02:24.963Z,7.02
2023-02-27T15:04:31.733Z,6.97
2023-02-27T15:06:45.587Z,6.83
2023-02-27T15:08:53.488Z,6.86
2023-02-27T15:11:00.196Z,6.87
2023-02-27T15:13:05.456Z,6.84
2023-02-27T15:15:13.171Z,7.13
2023-02-27T15:17:20.318Z,7.30
2023-02-27T15:19:26.922Z,7.46
2023-02-27T15:21:36.703Z,7.27
2023-02-27T15:23:43.968Z,7.20
2023-02-27T15:25:48.944Z,7.01
2023-02-27T15:27:53.660Z,7.01
2023-02-27T15:30:00.352Z,6.89
2023-02-27T15:32:38.913Z,6.68
2023-02-27T15:34:47.079Z,6.72
2023-02-27T15:36:56.238Z,6.52
2023-02-27T15:39:18.318Z,6.51
2023-02-27T15:41:23.206Z,6.47
2023-02-27T15:43:31.006Z,6.57
2023-02-27T15:45:38.061Z,6.51
2023-02-27T15:47:44.066Z,6.49
2023-02-27T15:49:53.006Z,6.44
2023-02-27T15:52:02.550Z,6.45
2023-02-27T15:54:11.058Z,6.48
2023-02-27T15:56:17.539Z,6.36
2023-02-27T15:58:27.282Z,6.31
2023-02-27T16:00:33.766Z,6.29
2023-02-27T16:02:49.224Z,6.27
2023-02-27T16:04:54.164Z,6.21
2023-02-27T16:07:04.879Z,6.13
2023-02-27T16:09:24.625Z,6.12
2023-02-27T16:11:32.109Z,6.08
2023-02-27T16:13:41.493Z,6.05
2023-02-27T16:15:46.540Z,6.03
2023-02-27T16:18:24.965Z,5.92
2023-02-27T16:20:41.453Z,5.82
2023-02-27T16:23:04.311Z,5.75
2023-02-27T16:25:22.963Z,5.70
2023-02-27T16:27:32.078Z,5.71
2023-02-27T16:29:38.569Z,5.71
2023-02-27T16:31:49.231Z,5.66
2023-02-27T16:33:55.267Z,5.63
2023-02-27T16:36:16.486Z,5.58
2023-02-27T16:38:21.205Z,5.62
2023-02-27T16:40:29.984Z,5.59
2023-02-27T16:42:35.004Z,5.56
2023-02-27T16:44:39.703Z,5.65
2023-02-27T16:46:46.012Z,5.58
2023-02-27T16:48:55.194Z,5.56
2023-02-27T16:51:00.317Z,5.46
2023-02-27T16:53:04.954Z,5.47
2023-02-27T16:55:10.931Z,5.43
2023-02-27T16:57:18.265Z,5.41
2023-02-27T16:59:33.683Z,5.31
2023-02-27T17:01:38.324Z,5.25
2023-02-27T17:03:43.169Z,5.21
2023-02-27T17:05:48.842Z,5.19
2023-02-27T17:07:53.620Z,5.06
2023-02-27T17:09:58.269Z,5.05
2023-02-27T17:12:02.892Z,5.00
2023-02-27T17:14:11.400Z,4.92
2023-02-27T17:16:17.456Z,4.90
2023-02-27T17:18:22.835Z,4.78
2023-02-27T17:20:30.156Z,4.72
2023-02-27T17:22:38.155Z,4.68
2023-02-27T17:24:42.767Z,4.68
2023-02-27T17:26:47.641Z,4.62
2023-02-27T17:28:52.368Z,4.55
2023-02-27T17:30:59.739Z,4.57
2023-02-27T17:33:04.550Z,4.52
2023-02-27T17:35:10.056Z,4.50
2023-02-27T17:37:14.620Z,4.48
2023-02-27T17:39:19.614Z,4.42
2023-02-27T17:41:24.732Z,4.39
2023-02-27T17:43:29.894Z,4.38
2023-02-27T17:45:34.754Z,4.29
2023-02-27T17:47:43.164Z,4.27
2023-02-27T17:49:47.782Z,4.21
2023-02-27T17:51:52.476Z,4.13
2023-02-27T17:53:57.750Z,4.07
2023-02-27T17:56:02.445Z,4.12
2023-02-27T17:58:07.332Z,4.11
2023-02-27T18:00:16.934Z,4.08
2023-02-27T18:02:21.685Z,4.03
2023-02-27T18:04:29.101Z,3.94
2023-02-27T18:06:33.931Z,3.94
2023-02-27T18:08:39.031Z,3.93
2023-02-27T18:10:43.704Z,3.90
2023-02-27T18:12:48.423Z,3.96
2023-02-27T18:14:53.008Z,3.91
2023-02-27T18:16:57.916Z,3.90
2023-02-27T18:19:05.289Z,3.79
2023-02-27T18:21:14.407Z,3.76
2023-02-27T18:23:19.235Z,3.76
2023-02-27T18:25:24.168Z,3.69
2023-02-27T18:27:29.608Z,3.67
2023-02-27T18:29:34.255Z,3.71
2023-02-27T18:31:43.242Z,3.67
2023-02-27T18:33:47.958Z,3.57
2023-02-27T18:35:53.373Z,3.50
2023-02-27T18:38:02.369Z,3.48
2023-02-27T18:40:08.241Z,3.45
2023-02-27T18:42:12.863Z,3.48
2023-02-27T18:44:17.636Z,3.39
2023-02-27T18:46:22.842Z,3.32
2023-02-27T18:48:27.783Z,3.26
2023-02-27T18:50:32.615Z,3.25
2023-02-27T18:52:37.696Z,3.21
2023-02-27T18:54:45.358Z,3.16
2023-02-27T18:56:53.280Z,3.14
2023-02-27T18:59:03.181Z,3.06
2023-02-27T19:01:08.488Z,3.05
2023-02-27T19:03:13.403Z,3.02
2023-02-27T19:05:18.105Z,3.08
2023-02-27T19:07:23.494Z,3.02
2023-02-27T19:09:32.822Z,3.01
2023-02-27T19:11:41.192Z,2.90
2023-02-27T19:13:45.881Z,2.90
2023-02-27T19:15:55.976Z,2.83
2023-02-27T19:18:01.017Z,2.77
2023-02-27T19:20:07.054Z,2.76
2023-02-27T19:22:11.804Z,2.79
2023-02-27T19:24:17.626Z,2.77
2023-02-27T19:26:23.354Z,2.82
2023-02-27T19:28:30.946Z,2.80
2023-02-27T19:30:35.629Z,2.76
2023-02-27T19:32:40.303Z,2.69
2023-02-27T19:34:47.575Z,2.63
2023-02-27T19:36:52.230Z,2.61
2023-02-27T19:38:58.145Z,2.56
2023-02-27T19:41:04.232Z,2.58
2023-02-27T19:43:09.112Z,2.56
2023-02-27T19:45:16.681Z,2.49
2023-02-27T19:47:21.443Z,2.49
2023-02-27T19:49:26.127Z,2.46
2023-02-27T19:51:31.659Z,2.44
2023-02-27T19:53:38.509Z,2.40
2023-02-27T19:55:43.227Z,2.37
2023-02-27T19:57:47.903Z,2.36
2023-02-27T19:59:52.993Z,2.37
2023-02-27T20:02:00.289Z,2.30
2023-02-27T20:04:05.457Z,2.29
2023-02-27T20:06:18.121Z,2.23
2023-02-27T20:08:22.802Z,2.19
2023-02-27T20:10:27.850Z,2.12
2023-02-27T20:12:32.519Z,2.05
2023-02-27T20:14:38.040Z,1.97
2023-02-27T20:16:43.279Z,1.92
2023-02-27T20:18:51.501Z,1.87
2023-02-27T20:21:03.597Z,1.86
2023-02-27T20:23:08.318Z,1.80
2023-02-27T20:25:14.363Z,1.75
2023-02-27T20:27:19.586Z,1.72
2023-02-27T20:29:26.193Z,1.73
2023-02-27T20:31:33.275Z,1.73
2023-02-27T20:33:38.399Z,1.71
2023-02-27T20:35:45.752Z,1.71
2023-02-27T20:37:50.840Z,1.71
2023-02-27T20:39:55.450Z,1.73
2023-02-27T20:42:00.819Z,1.69
2023-02-27T20:44:08.505Z,1.72
2023-02-27T20:46:15.752Z,1.72
2023-02-27T20:48:20.454Z,1.68
2023-02-27T20:50:25.210Z,1.72
2023-02-27T20:52:32.511Z,1.70
2023-02-27T20:54:37.314Z,1.68
2023-02-27T20:56:44.907Z,1.62
2023-02-27T20:58:49.981Z,1.61
2023-02-27T21:00:54.874Z,1.58
2023-02-27T21:03:00.888Z,1.56
2023-02-27T21:05:05.751Z,1.52
2023-02-27T21:07:11.651Z,1.46
2023-02-27T21:09:19.015Z,1.42
2023-02-27T21:11:27.494Z,1.34
2023-02-27T21:13:32.699Z,1.30
2023-02-27T21:15:37.843Z,1.26
2023-02-27T21:17:42.603Z,1.24
2023-02-27T21:19:47.366Z,1.25
2023-02-27T21:21:52.058Z,1.24
2023-02-27T21:23:58.064Z,1.23
2023-02-27T21:26:07.584Z,1.20
2023-02-27T21:28:14.257Z,1.22
2023-02-27T21:30:19.796Z,1.19
2023-02-27T21:32:24.570Z,1.16
2023-02-27T21:34:31.561Z,1.15
2023-02-27T21:36:42.372Z,1.13
2023-02-27T21:38:47.256Z,1.14
2023-02-27T21:40:51.924Z,1.12
2023-02-27T21:42:59.292Z,1.15
2023-02-27T21:45:03.888Z,1.15
2023-02-27T21:47:10.298Z,1.14
2023-02-27T21:49:19.738Z,1.12
2023-02-27T21:51:38.750Z,1.09
2023-02-27T21:53:46.781Z,1.16
2023-02-27T21:55:51.466Z,1.16
2023-02-27T21:57:56.114Z,1.14
2023-02-27T22:00:06.211Z,1.12
2023-02-27T22:02:13.495Z,1.12
2023-02-27T22:04:19.124Z,1.10
2023-02-27T22:06:25.664Z,1.13
2023-02-27T22:08:30.653Z,1.11
2023-02-27T22:10:42.948Z,1.06
2023-02-27T22:12:47.644Z,1.06
2023-02-27T22:14:52.869Z,1.05
2023-02-27T22:17:00.769Z,1.08
2023-02-27T22:19:08.627Z,1.10
2023-02-27T22:21:16.181Z,1.07
2023-02-27T22:23:22.186Z,1.07
2023-02-27T22:25:26.784Z,1.12
2023-02-27T22:27:32.299Z,1.10
2023-02-27T22:29:38.212Z,1.09
2023-02-27T22:31:43.027Z,1.08
2023-02-27T22:33:51.875Z,1.08
2023-02-27T22:35:56.589Z,1.10
2023-02-27T22:38:01.332Z,1.09
2023-02-27T22:40:07.058Z,1.04
2023-02-27T22:42:11.811Z,1.05
2023-02-27T22:44:18.626Z,1.00
2023-02-27T22:46:28.487Z,1.00
2023-02-27T22:48:33.601Z,0.99
2023-02-27T22:50:41.162Z,1.02
2023-02-27T22:52:46.068Z,0.97
2023-02-27T22:54:52.970Z,0.90
2023-02-27T22:56:58.231Z,0.97
2023-02-27T22:59:03.386Z,0.90
2023-02-27T23:01:12.154Z,0.85
2023-02-27T23:03:17.595Z,0.79
2023-02-27T23:05:22.297Z,0.80
2023-02-27T23:07:29.580Z,0.77
2023-02-27T23:09:34.510Z,0.75
2023-02-27T23:11:39.429Z,0.74
2023-02-27T23:13:44.671Z,0.72
2023-02-27T23:15:49.447Z,0.67
2023-02-27T23:17:58.507Z,0.60
2023-02-27T23:20:04.564Z,0.49
2023-02-27T23:22:09.205Z,0.42
2023-02-27T23:24:18.059Z,0.35
2023-02-27T23:26:22.957Z,0.25
2023-02-27T23:28:27.571Z,0.22
2023-02-27T23:30:32.407Z,0.21
2023-02-27T23:32:43.564Z,0.26
2023-02-27T23:34:49.867Z,0.38
2023-02-27T23:36:54.672Z,0.40
2023-02-27T23:38:59.433Z,0.42
2023-02-27T23:41:13.108Z,0.44
2023-02-27T23:43:21.341Z,0.47
2023-02-27T23:45:23.482Z,0.50
2023-02-27T23:47:40.563Z,0.49
2023-02-27T23:49:45.304Z,0.51
2023-02-27T23:51:49.914Z,0.47
2023-02-27T23:53:54.591Z,0.41
2023-02-27T23:55:59.926Z,0.37
2023-02-27T23:58:08.751Z,0.34
